Time;durP1;ratioP1;P1;durP2;ratioP2;P2;SDS_P1;SDS_P2;PMS_P1;PMS_P2;Temp;Humidity;BMP_temperature;BMP_pressure;BME280_temperature;BME280_humidity;BME280_pressure;Samples;Min_cycle;Max_cycle;Signal;HPM_P1;HPM_P2
2023/05/23 00:01:06;;;;;;;5.70;4.60;;;16.90;99.90;;;;;;5010310;28;20025;-82
2023/05/23 00:03:31;;;;;;;5.55;4.45;;;16.80;99.90;;;;;;4995928;28;20036;-82
2023/05/23 00:05:57;;;;;;;5.40;4.30;;;16.80;99.90;;;;;;5003200;28;20385;-79
2023/05/23 00:08:24;;;;;;;9.10;4.70;;;16.80;99.90;;;;;;5011999;28;20020;-82
2023/05/23 00:10:54;;;;;;;7.95;5.15;;;16.80;99.90;;;;;;5014362;28;20100;-82
2023/05/23 00:13:20;;;;;;;7.15;4.35;;;16.80;99.90;;;;;;5014325;28;20116;-82
2023/05/23 00:15:47;;;;;;;5.50;4.20;;;16.80;99.90;;;;;;5003127;28;20113;-79
2023/05/23 00:18:14;;;;;;;7.85;4.20;;;16.90;99.90;;;;;;5014944;28;20029;-84
2023/05/23 00:20:41;;;;;;;8.77;4.70;;;16.90;99.90;;;;;;5013759;28;20025;-82
2023/05/23 00:23:08;;;;;;;5.22;4.25;;;16.80;99.90;;;;;;5015532;28;20030;-82
2023/05/23 00:25:35;;;;;;;11.48;5.03;;;16.80;99.90;;;;;;5013933;28;20060;-85
2023/05/23 00:28:04;;;;;;;7.95;5.30;;;16.80;99.90;;;;;;5014638;28;20024;-81
2023/05/23 00:30:31;;;;;;;6.35;4.47;;;16.90;99.90;;;;;;5014253;28;20025;-81
2023/05/23 00:32:59;;;;;;;10.20;4.93;;;16.90;99.90;;;;;;5017025;28;20079;-83
2023/05/23 00:35:24;;;;;;;6.40;4.72;;;16.90;99.90;;;;;;5000550;28;20056;-82
2023/05/23 00:37:50;;;;;;;7.93;5.03;;;17.00;99.90;;;;;;5001088;28;20448;-80
2023/05/23 00:40:17;;;;;;;11.10;4.80;;;16.90;99.90;;;;;;5015810;28;20374;-83
2023/05/23 00:42:43;;;;;;;7.28;5.13;;;17.00;99.90;;;;;;5009964;28;20025;-83
2023/05/23 00:45:09;;;;;;;6.82;4.88;;;16.90;99.90;;;;;;5011337;28;20424;-81
2023/05/23 00:47:34;;;;;;;6.28;5.45;;;16.90;99.90;;;;;;5013063;28;20659;-81
2023/05/23 00:50:00;;;;;;;9.07;5.18;;;16.90;99.90;;;;;;4997481;28;20104;-79
2023/05/23 00:52:26;;;;;;;10.80;5.20;;;16.80;99.90;;;;;;5013210;28;20396;-82
2023/05/23 00:54:51;;;;;;;8.20;5.18;;;16.90;99.90;;;;;;5014025;28;20037;-84
2023/05/23 00:57:17;;;;;;;7.90;5.68;;;16.80;99.90;;;;;;5011413;28;20072;-82
2023/05/23 00:59:45;;;;;;;6.80;5.28;;;16.80;99.90;;;;;;5016571;28;20053;-81
2023/05/23 01:02:11;;;;;;;11.75;5.80;;;16.80;99.90;;;;;;5014724;28;20033;-81
2023/05/23 01:04:37;;;;;;;7.70;5.05;;;16.90;99.90;;;;;;5012646;28;20017;-82
2023/05/23 01:07:03;;;;;;;12.27;5.53;;;16.80;99.90;;;;;;5013458;28;20177;-81
2023/05/23 01:09:29;;;;;;;8.38;5.50;;;16.90;99.90;;;;;;5001044;28;20266;-82
2023/05/23 01:12:04;;;;;;;11.88;5.80;;;16.80;99.90;;;;;;4995652;28;20112;-82
2023/05/23 01:14:56;;;;;;;8.82;5.03;;;16.90;99.90;;;;;;5015445;28;20045;-83
2023/05/23 01:17:29;;;;;;;11.77;6.00;;;16.80;99.90;;;;;;5009062;28;20133;-80
2023/05/23 01:20:03;;;;;;;11.40;6.45;;;16.80;99.90;;;;;;5010636;28;20698;-83
2023/05/23 01:22:41;;;;;;;7.85;5.35;;;16.80;99.90;;;;;;4996402;28;20034;-79
2023/05/23 01:25:22;;;;;;;13.15;6.68;;;16.70;99.90;;;;;;5008108;28;20428;-83
2023/05/23 01:27:55;;;;;;;10.02;5.38;;;16.70;99.90;;;;;;5015829;28;20064;-83
2023/05/23 01:30:23;;;;;;;9.55;6.25;;;16.70;99.90;;;;;;5010221;28;20017;-81
2023/05/23 01:32:52;;;;;;;8.95;6.13;;;16.70;99.90;;;;;;5011909;28;20034;-79
2023/05/23 01:35:24;;;;;;;8.52;5.60;;;16.80;99.90;;;;;;5012448;28;20064;-82
2023/05/23 01:37:50;;;;;;;12.75;6.20;;;16.80;99.90;;;;;;5019139;28;20021;-79
2023/05/23 01:40:15;;;;;;;10.23;5.78;;;16.70;99.90;;;;;;5016255;28;20223;-81
2023/05/23 01:42:43;;;;;;;8.25;5.22;;;16.80;99.90;;;;;;4993940;28;20044;-81
2023/05/23 01:45:10;;;;;;;13.80;5.63;;;16.80;99.90;;;;;;5013868;28;20515;-83
2023/05/23 01:47:36;;;;;;;7.88;5.85;;;16.70;99.90;;;;;;5010627;28;20010;-83
2023/05/23 01:50:02;;;;;;;11.57;6.00;;;16.70;99.90;;;;;;5000823;28;20025;-80
2023/05/23 01:52:28;;;;;;;14.50;5.82;;;16.70;99.90;;;;;;5001680;28;20018;-83
2023/05/23 01:54:55;;;;;;;14.30;5.72;;;16.80;99.90;;;;;;5000516;28;20033;-83
2023/05/23 01:57:23;;;;;;;11.38;5.22;;;16.70;99.90;;;;;;5011200;28;20190;-81
2023/05/23 01:59:49;;;;;;;9.60;5.22;;;16.70;99.90;;;;;;5011713;28;20117;-82
2023/05/23 02:02:14;;;;;;;10.05;5.43;;;16.60;99.90;;;;;;5013768;28;20489;-82
2023/05/23 02:04:40;;;;;;;14.82;5.53;;;16.50;99.90;;;;;;5009294;28;20030;-80
2023/05/23 02:07:06;;;;;;;11.07;5.40;;;16.50;99.90;;;;;;5013089;28;20028;-83
2023/05/23 02:09:34;;;;;;;11.55;5.72;;;16.50;99.90;;;;;;5011188;28;20030;-82
2023/05/23 02:12:00;;;;;;;11.63;5.80;;;16.50;99.90;;;;;;5013996;28;20024;-80
2023/05/23 02:14:27;;;;;;;10.52;5.40;;;16.40;99.90;;;;;;5014553;28;20515;-81
2023/05/23 02:16:52;;;;;;;12.55;6.00;;;16.20;99.90;;;;;;5014544;28;20072;-83
2023/05/23 02:19:20;;;;;;;11.90;5.47;;;16.20;99.90;;;;;;5015862;28;20061;-80
2023/05/23 02:21:46;;;;;;;9.75;5.22;;;16.20;99.90;;;;;;4997601;28;20014;-81
2023/05/23 02:24:14;;;;;;;13.23;5.35;;;16.20;99.90;;;;;;5016608;28;20037;-82
2023/05/23 02:26:40;;;;;;;7.18;4.32;;;16.20;99.90;;;;;;5014845;28;20025;-82
2023/05/23 02:29:06;;;;;;;8.30;4.10;;;16.20;99.90;;;;;;5016210;28;20049;-82
2023/05/23 02:31:31;;;;;;;9.43;4.40;;;16.20;99.90;;;;;;5015071;28;21042;-83
2023/05/23 02:33:59;;;;;;;5.93;4.07;;;16.20;99.90;;;;;;5005932;28;20508;-84
2023/05/23 02:36:25;;;;;;;9.85;4.53;;;16.20;99.90;;;;;;5014127;28;20026;-83
2023/05/23 02:38:51;;;;;;;9.30;4.35;;;16.10;99.90;;;;;;5002928;28;20024;-82
2023/05/23 02:41:20;;;;;;;9.80;4.68;;;16.10;99.90;;;;;;5004436;28;20041;-82
2023/05/23 02:43:48;;;;;;;11.38;5.53;;;16.10;99.90;;;;;;4997213;28;20034;-80
2023/05/23 02:46:14;;;;;;;12.82;5.47;;;16.00;99.90;;;;;;5010800;28;20465;-83
2023/05/23 02:48:40;;;;;;;10.98;5.78;;;16.00;99.90;;;;;;4999240;28;20030;-85
2023/05/23 02:51:05;;;;;;;11.18;5.88;;;16.00;99.90;;;;;;5017306;28;20018;-84
2023/05/23 02:53:31;;;;;;;13.35;5.60;;;16.00;99.90;;;;;;5015175;28;20033;-83
2023/05/23 02:55:58;;;;;;;11.68;5.50;;;16.10;99.90;;;;;;5017970;28;20097;-83
2023/05/23 02:58:24;;;;;;;13.05;5.97;;;16.10;99.90;;;;;;5014698;28;20490;-82
2023/05/23 03:00:52;;;;;;;13.57;5.85;;;16.10;99.90;;;;;;5003006;28;20399;-83
2023/05/23 03:03:18;;;;;;;14.02;5.90;;;16.10;99.90;;;;;;4997136;28;20512;-81
2023/05/23 03:05:46;;;;;;;11.10;6.10;;;16.10;99.90;;;;;;5015254;28;20013;-82
2023/05/23 03:08:13;;;;;;;10.45;5.43;;;16.00;99.90;;;;;;4999913;28;20033;-82
2023/05/23 03:10:39;;;;;;;13.23;6.20;;;16.00;99.90;;;;;;4994315;28;20076;-83
2023/05/23 03:13:05;;;;;;;12.20;5.97;;;16.00;99.90;;;;;;5018220;28;20424;-81
2023/05/23 03:15:32;;;;;;;11.52;5.85;;;16.10;99.90;;;;;;5004238;28;20037;-83
2023/05/23 03:17:58;;;;;;;12.98;5.93;;;16.00;99.90;;;;;;5007271;28;20465;-80
2023/05/23 03:20:24;;;;;;;17.90;6.72;;;16.10;99.90;;;;;;5012256;28;20032;-77
2023/05/23 03:22:49;;;;;;;17.63;6.35;;;16.10;99.90;;;;;;5011418;28;20026;-81
2023/05/23 03:25:15;;;;;;;10.27;6.30;;;16.10;99.90;;;;;;4998379;28;20041;-82
2023/05/23 03:27:41;;;;;;;12.10;5.72;;;16.10;99.90;;;;;;4996865;28;20112;-82
2023/05/23 03:30:07;;;;;;;14.20;6.35;;;16.10;99.90;;;;;;5011283;28;20037;-81
2023/05/23 03:32:33;;;;;;;9.65;6.00;;;16.10;99.90;;;;;;5005839;28;20537;-83
2023/05/23 03:34:58;;;;;;;17.13;6.97;;;16.10;99.90;;;;;;5000181;28;20021;-84
2023/05/23 03:37:24;;;;;;;11.55;5.85;;;16.10;99.90;;;;;;5015391;28;20077;-79
2023/05/23 03:39:49;;;;;;;18.08;7.32;;;16.00;99.90;;;;;;5018141;28;20092;-82
2023/05/23 03:42:16;;;;;;;12.43;6.95;;;16.00;99.90;;;;;;5014968;28;20029;-83
2023/05/23 03:44:44;;;;;;;13.98;6.85;;;16.00;99.90;;;;;;5017266;28;20074;-83
2023/05/23 03:47:10;;;;;;;13.80;6.70;;;16.20;99.90;;;;;;5012644;28;20022;-83
2023/05/23 03:49:35;;;;;;;19.10;6.88;;;16.10;99.90;;;;;;5014838;28;20091;-81
2023/05/23 03:52:01;;;;;;;14.10;7.28;;;16.00;99.90;;;;;;4996496;28;20025;-76
2023/05/23 03:54:27;;;;;;;18.95;7.75;;;16.00;99.90;;;;;;5015378;28;20026;-76
2023/05/23 03:56:52;;;;;;;15.73;8.18;;;15.90;99.90;;;;;;5014034;28;20105;-76
2023/05/23 03:59:18;;;;;;;16.73;8.15;;;15.90;99.90;;;;;;5013754;28;20096;-76
2023/05/23 04:01:45;;;;;;;18.70;8.30;;;16.00;99.90;;;;;;4992916;28;20232;-75
2023/05/23 04:04:15;;;;;;;17.50;8.30;;;15.90;99.90;;;;;;5014480;28;20121;-75
2023/05/23 04:06:41;;;;;;;15.32;7.78;;;15.90;99.90;;;;;;4996489;28;20021;-76
2023/05/23 04:09:07;;;;;;;19.25;9.25;;;15.90;99.90;;;;;;5009884;28;20029;-76
2023/05/23 04:11:35;;;;;;;15.55;8.07;;;15.90;99.90;;;;;;5012968;28;20045;-77
2023/05/23 04:14:01;;;;;;;15.77;8.02;;;15.90;99.90;;;;;;4995367;28;20032;-76
2023/05/23 04:16:27;;;;;;;15.70;8.02;;;15.90;99.90;;;;;;5014095;28;20322;-76
2023/05/23 04:18:53;;;;;;;20.92;9.65;;;15.80;99.90;;;;;;5013013;28;20022;-76
2023/05/23 04:21:18;;;;;;;18.75;8.43;;;15.80;99.90;;;;;;4999422;28;20030;-77
2023/05/23 04:23:44;;;;;;;17.60;8.68;;;15.80;99.90;;;;;;5002614;28;20041;-77
2023/05/23 04:26:12;;;;;;;17.05;8.23;;;15.80;99.90;;;;;;5012055;28;20041;-76
2023/05/23 04:28:38;;;;;;;20.02;8.35;;;15.90;99.90;;;;;;5014645;28;20072;-75
2023/05/23 04:31:07;;;;;;;16.13;9.10;;;15.90;99.90;;;;;;5014523;28;20009;-75
2023/05/23 04:33:33;;;;;;;19.88;8.65;;;15.70;99.90;;;;;;4997140;28;20033;-76
2023/05/23 04:35:58;;;;;;;17.17;8.15;;;15.60;99.90;;;;;;5009352;28;20072;-76
2023/05/23 04:38:24;;;;;;;22.02;8.52;;;15.60;99.90;;;;;;4993234;28;20091;-76
2023/05/23 04:40:52;;;;;;;18.33;8.73;;;15.70;99.90;;;;;;5010451;28;20022;-76
2023/05/23 04:43:18;;;;;;;16.08;9.30;;;15.70;99.90;;;;;;5014381;28;20045;-75
2023/05/23 04:45:45;;;;;;;18.13;8.23;;;15.80;99.90;;;;;;5011476;28;20098;-76
2023/05/23 04:48:12;;;;;;;28.42;12.45;;;15.80;99.90;;;;;;5023357;28;20021;-77
2023/05/23 04:50:39;;;;;;;14.85;7.82;;;15.80;99.90;;;;;;5003225;28;20025;-76
2023/05/23 04:53:05;;;;;;;13.88;7.65;;;15.80;99.90;;;;;;5011693;28;20096;-76
2023/05/23 04:55:31;;;;;;;16.02;8.38;;;15.80;99.90;;;;;;5010575;28;20105;-75
2023/05/23 04:57:56;;;;;;;17.13;8.65;;;15.70;99.90;;;;;;5012561;28;20022;-75
2023/05/23 05:00:22;;;;;;;16.85;8.48;;;15.70;99.90;;;;;;5013696;28;20099;-76
2023/05/23 05:02:47;;;;;;;17.33;7.70;;;15.70;99.90;;;;;;5012094;28;20037;-76
2023/05/23 05:05:16;;;;;;;13.43;7.63;;;15.80;99.90;;;;;;5014003;28;20104;-75
2023/05/23 05:07:41;;;;;;;18.67;8.65;;;15.80;99.90;;;;;;5010328;28;20422;-75
2023/05/23 05:10:15;;;;;;;12.80;7.85;;;15.70;99.90;;;;;;5000591;28;20112;-75
2023/05/23 05:12:50;;;;;;;15.18;7.38;;;15.80;99.90;;;;;;5014824;28;20664;-75
2023/05/23 05:15:16;;;;;;;20.90;8.75;;;15.80;99.90;;;;;;4994623;28;20477;-75
2023/05/23 05:17:43;;;;;;;19.83;7.88;;;15.80;99.90;;;;;;5012056;28;20084;-75
2023/05/23 05:20:10;;;;;;;20.00;8.13;;;15.90;99.90;;;;;;5012403;28;20097;-75
2023/05/23 05:22:39;;;;;;;19.33;8.38;;;15.90;99.90;;;;;;5015143;28;20033;-75
2023/05/23 05:25:06;;;;;;;16.98;8.25;;;15.90;99.90;;;;;;5010430;28;20030;-75
2023/05/23 05:27:36;;;;;;;21.08;8.23;;;16.00;99.90;;;;;;5010151;28;20024;-75
2023/05/23 05:30:07;;;;;;;17.63;7.88;;;16.10;99.90;;;;;;5012056;28;20026;-76
2023/05/23 05:32:32;;;;;;;14.98;7.72;;;16.20;99.90;;;;;;4996006;28;20120;-75
2023/05/23 05:35:02;;;;;;;20.15;8.10;;;16.20;99.90;;;;;;5003344;28;20128;-76
2023/05/23 05:37:28;;;;;;;18.67;7.72;;;16.00;99.90;;;;;;4995389;28;20577;-75
2023/05/23 05:39:55;;;;;;;20.17;8.18;;;16.10;99.90;;;;;;5011055;28;20119;-76
2023/05/23 05:42:26;;;;;;;18.42;7.88;;;16.20;99.90;;;;;;4997397;28;20092;-75
2023/05/23 05:44:53;;;;;;;18.73;7.53;;;16.20;99.90;;;;;;5012634;28;20018;-75
2023/05/23 05:47:19;;;;;;;15.70;7.70;;;16.10;99.90;;;;;;5013113;28;20057;-76
2023/05/23 05:49:45;;;;;;;14.18;7.22;;;16.30;99.90;;;;;;5009776;28;20634;-76
2023/05/23 05:52:10;;;;;;;13.35;7.18;;;16.20;99.90;;;;;;5002150;28;20034;-75
2023/05/23 05:54:36;;;;;;;14.38;7.20;;;16.10;99.90;;;;;;5016577;28;20025;-75
2023/05/23 05:57:02;;;;;;;19.42;8.35;;;16.20;99.90;;;;;;5018468;28;20021;-77
2023/05/23 05:59:27;;;;;;;15.10;7.25;;;16.20;99.90;;;;;;5014361;28;20607;-76
2023/05/23 06:01:55;;;;;;;20.83;6.78;;;16.10;99.90;;;;;;4998809;28;20030;-76
2023/05/23 06:04:21;;;;;;;18.00;7.07;;;16.10;99.90;;;;;;4999945;28;20930;-81
2023/05/23 06:06:46;;;;;;;14.95;6.50;;;16.20;99.90;;;;;;5016145;28;20022;-80
2023/05/23 06:09:12;;;;;;;14.93;6.93;;;16.30;99.90;;;;;;5014288;28;20825;-82
2023/05/23 06:11:39;;;;;;;14.23;6.75;;;16.30;99.90;;;;;;5007060;28;20038;-83
2023/05/23 06:14:05;;;;;;;16.83;7.00;;;16.30;99.90;;;;;;5016579;28;20021;-80
2023/05/23 06:16:31;;;;;;;14.93;6.80;;;16.30;99.90;;;;;;5000485;28;20562;-81
2023/05/23 06:18:56;;;;;;;17.73;6.97;;;16.30;99.90;;;;;;5019121;28;20034;-80
2023/05/23 06:21:22;;;;;;;19.95;7.00;;;16.30;99.90;;;;;;5017454;28;20036;-82
2023/05/23 06:23:48;;;;;;;15.60;7.80;;;16.20;99.90;;;;;;5016436;28;20045;-80
2023/05/23 06:26:13;;;;;;;18.60;7.38;;;16.20;99.90;;;;;;5001797;28;20109;-81
2023/05/23 06:28:39;;;;;;;18.70;7.47;;;16.20;99.90;;;;;;5001412;28;20017;-79
2023/05/23 06:31:05;;;;;;;18.88;7.82;;;15.90;99.90;;;;;;5006152;28;20018;-81
2023/05/23 06:33:31;;;;;;;21.70;7.00;;;15.80;99.90;;;;;;5017883;28;20026;-80
2023/05/23 06:35:57;;;;;;;18.60;6.75;;;15.90;99.90;;;;;;5016997;28;20030;-82
2023/05/23 06:38:22;;;;;;;21.63;7.07;;;15.80;99.90;;;;;;5002109;28;20040;-81
2023/05/23 06:40:48;;;;;;;20.58;7.75;;;15.90;99.90;;;;;;5001190;28;20038;-82
2023/05/23 06:43:14;;;;;;;21.15;7.43;;;15.90;99.90;;;;;;5015951;28;20125;-81
2023/05/23 06:45:39;;;;;;;21.40;7.50;;;15.90;99.90;;;;;;5015637;28;20053;-80
2023/05/23 06:48:05;;;;;;;22.48;7.20;;;15.70;99.90;;;;;;4999567;28;20021;-81
2023/05/23 06:50:33;;;;;;;22.60;7.30;;;15.70;99.90;;;;;;5013717;28;20026;-78
2023/05/23 06:52:58;;;;;;;24.45;8.35;;;15.70;99.90;;;;;;5014567;28;20188;-81
2023/05/23 06:55:24;;;;;;;22.90;8.13;;;15.60;99.90;;;;;;5018320;28;20485;-78
2023/05/23 06:57:50;;;;;;;16.40;7.75;;;15.50;99.90;;;;;;5016194;28;20048;-81
2023/05/23 07:00:17;;;;;;;23.40;7.20;;;15.50;99.90;;;;;;5016602;28;20014;-82
2023/05/23 07:02:47;;;;;;;24.02;7.18;;;15.40;99.90;;;;;;5014531;28;20041;-81
2023/05/23 07:05:16;;;;;;;28.50;7.45;;;15.30;99.90;;;;;;5014521;28;20473;-81
2023/05/23 07:07:42;;;;;;;24.40;7.15;;;15.40;99.90;;;;;;5016601;28;20049;-78
2023/05/23 07:10:08;;;;;;;17.77;6.78;;;15.30;99.90;;;;;;5005780;28;20017;-82
2023/05/23 07:12:34;;;;;;;21.30;5.90;;;15.30;99.90;;;;;;5019498;28;20116;-80
2023/05/23 07:15:00;;;;;;;20.40;6.30;;;15.40;99.90;;;;;;5005177;28;20060;-79
2023/05/23 07:17:28;;;;;;;21.05;5.97;;;15.30;99.90;;;;;;5022789;28;20018;-82
2023/05/23 07:19:54;;;;;;;12.95;5.65;;;15.40;99.90;;;;;;5016873;28;20017;-81
2023/05/23 07:22:20;;;;;;;22.20;7.15;;;15.40;99.90;;;;;;4998569;28;20042;-81
2023/05/23 07:24:46;;;;;;;20.58;7.45;;;15.40;99.90;;;;;;5004923;28;20021;-82
2023/05/23 07:27:11;;;;;;;13.55;5.45;;;15.40;99.90;;;;;;5013928;28;20018;-81
2023/05/23 07:29:37;;;;;;;17.17;5.55;;;15.30;99.90;;;;;;5016592;28;20063;-79
2023/05/23 07:32:03;;;;;;;17.85;5.95;;;15.40;99.90;;;;;;5014379;28;20025;-81
2023/05/23 07:34:29;;;;;;;18.98;5.72;;;15.20;99.90;;;;;;5015962;28;20098;-79
2023/05/23 07:36:55;;;;;;;14.63;6.13;;;15.20;99.90;;;;;;5014925;28;20017;-81
2023/05/23 07:39:22;;;;;;;18.42;6.15;;;15.10;99.90;;;;;;5014762;28;20029;-81
2023/05/23 07:41:48;;;;;;;23.52;7.05;;;15.10;99.90;;;;;;5016684;28;20117;-78
2023/05/23 07:44:15;;;;;;;24.30;7.00;;;15.10;99.90;;;;;;5013217;28;20030;-81
2023/05/23 07:46:40;;;;;;;19.55;7.10;;;15.10;99.90;;;;;;5018773;28;20021;-81
2023/05/23 07:49:08;;;;;;;20.80;6.22;;;15.10;99.90;;;;;;5018606;28;20535;-81
2023/05/23 07:51:34;;;;;;;23.63;7.38;;;14.90;99.90;;;;;;5016410;28;20025;-80
2023/05/23 07:54:00;;;;;;;21.50;6.43;;;14.90;99.90;;;;;;5013825;28;20014;-80
2023/05/23 07:56:28;;;;;;;18.17;6.40;;;14.90;99.90;;;;;;5015074;28;20489;-81
2023/05/23 07:58:53;;;;;;;21.40;6.35;;;14.80;99.90;;;;;;5005342;28;20033;-80
2023/05/23 08:01:19;;;;;;;16.55;6.07;;;14.80;99.90;;;;;;5012826;28;20561;-80
2023/05/23 08:03:45;;;;;;;17.35;6.28;;;14.90;99.90;;;;;;5017708;28;20108;-79
2023/05/23 08:06:10;;;;;;;12.70;5.03;;;14.90;99.90;;;;;;5018361;28;20401;-81
2023/05/23 08:08:36;;;;;;;16.42;5.22;;;14.90;99.90;;;;;;5019634;28;20445;-81
2023/05/23 08:11:02;;;;;;;12.60;5.28;;;15.00;99.90;;;;;;5015226;28;20025;-81
2023/05/23 08:13:30;;;;;;;15.80;4.63;;;14.90;99.90;;;;;;5014025;28;20065;-81
2023/05/23 08:15:55;;;;;;;10.00;4.53;;;15.10;99.90;;;;;;5015693;28;20029;-81
2023/05/23 08:18:23;;;;;;;11.32;4.43;;;15.30;99.90;;;;;;5013021;28;20029;-77
2023/05/23 08:20:49;;;;;;;14.52;4.55;;;15.30;99.90;;;;;;5012225;28;20426;-81
2023/05/23 08:23:16;;;;;;;11.38;4.40;;;15.30;99.90;;;;;;5009436;28;20570;-81
2023/05/23 08:25:42;;;;;;;16.05;5.28;;;15.40;99.90;;;;;;4996861;28;20096;-81
2023/05/23 08:28:08;;;;;;;21.30;5.60;;;15.30;99.90;;;;;;5013070;28;20048;-81
2023/05/23 08:30:34;;;;;;;19.88;6.28;;;15.30;99.90;;;;;;5001349;28;20026;-80
2023/05/23 08:33:03;;;;;;;17.35;6.13;;;15.20;99.90;;;;;;5012814;28;20124;-81
2023/05/23 08:35:33;;;;;;;24.00;6.22;;;15.10;99.90;;;;;;4995601;28;20042;-78
2023/05/23 08:38:00;;;;;;;22.67;5.75;;;14.90;99.90;;;;;;5016824;28;20023;-78
2023/05/23 08:40:28;;;;;;;25.38;5.93;;;14.80;99.90;;;;;;5012774;28;20072;-79
2023/05/23 08:42:55;;;;;;;19.48;6.28;;;14.80;99.90;;;;;;4999284;28;20115;-77
2023/05/23 08:45:23;;;;;;;21.33;6.45;;;14.70;99.90;;;;;;5005756;28;20025;-79
2023/05/23 08:47:51;;;;;;;15.27;5.80;;;14.50;99.90;;;;;;5021927;28;20025;-81
2023/05/23 08:50:18;;;;;;;11.07;4.93;;;14.50;99.90;;;;;;5013229;28;20021;-79
2023/05/23 08:53:18;;;;;;;18.33;5.78;;;14.60;99.90;;;;;;5015351;28;20053;-81
2023/05/23 08:55:44;;;;;;;17.33;5.80;;;14.80;99.90;;;;;;4996254;28;20341;-81
2023/05/23 08:58:12;;;;;;;14.38;5.25;;;15.00;99.90;;;;;;5000450;28;20105;-79
2023/05/23 09:00:38;;;;;;;19.75;5.90;;;15.10;99.90;;;;;;5016273;28;20163;-79
2023/05/23 09:03:04;;;;;;;17.42;4.90;;;15.50;99.90;;;;;;4996949;28;20037;-80
2023/05/23 09:05:29;;;;;;;10.18;5.03;;;15.60;99.90;;;;;;5012114;28;20036;-81
2023/05/23 09:07:55;;;;;;;17.05;5.40;;;15.80;99.90;;;;;;5014231;28;20056;-82
2023/05/23 09:10:21;;;;;;;12.43;5.05;;;15.90;99.90;;;;;;5013220;28;20040;-82
2023/05/23 09:12:47;;;;;;;12.10;4.70;;;16.20;99.90;;;;;;5012548;28;20025;-81
2023/05/23 09:15:15;;;;;;;8.93;4.43;;;16.70;99.90;;;;;;5014569;28;20056;-76
2023/05/23 09:17:41;;;;;;;14.68;5.03;;;17.40;99.90;;;;;;4997012;28;20305;-75
2023/05/23 09:20:12;;;;;;;10.02;4.82;;;17.80;99.90;;;;;;4995944;28;20108;-76
2023/05/23 09:22:38;;;;;;;10.50;3.75;;;17.90;99.90;;;;;;5013783;28;20113;-75
2023/05/23 09:25:05;;;;;;;12.15;4.22;;;17.80;99.90;;;;;;4996677;28;20597;-76
2023/05/23 09:27:33;;;;;;;6.50;4.13;;;17.90;99.90;;;;;;5013457;28;20105;-75
2023/05/23 09:30:08;;;;;;;12.65;4.97;;;17.80;99.90;;;;;;5019404;28;20033;-75
2023/05/23 09:32:33;;;;;;;15.10;3.90;;;18.10;99.90;;;;;;5015223;28;20033;-76
2023/05/23 09:35:04;;;;;;;13.52;4.15;;;18.00;99.90;;;;;;5001528;28;20082;-76
2023/05/23 09:37:30;;;;;;;11.98;4.10;;;17.90;99.90;;;;;;5012756;28;20025;-76
2023/05/23 09:39:57;;;;;;;9.98;3.90;;;17.70;99.90;;;;;;5005181;28;20063;-76
2023/05/23 09:42:23;;;;;;;18.52;4.03;;;17.60;99.90;;;;;;5015022;28;20034;-76
2023/05/23 09:44:49;;;;;;;15.68;3.65;;;17.40;99.90;;;;;;5015558;28;20038;-75
2023/05/23 09:47:15;;;;;;;10.95;3.35;;;17.60;99.90;;;;;;5001336;28;20029;-75
2023/05/23 09:49:45;;;;;;;7.82;3.70;;;17.70;99.90;;;;;;5018467;28;20047;-75
2023/05/23 09:52:12;;;;;;;12.82;4.40;;;17.80;99.90;;;;;;5016805;28;20441;-75
2023/05/23 09:54:38;;;;;;;14.82;3.97;;;17.80;99.90;;;;;;5016220;28;20033;-76
2023/05/23 09:57:10;;;;;;;10.25;3.90;;;18.00;99.90;;;;;;5015928;28;20071;-76
2023/05/23 09:59:40;;;;;;;6.90;3.28;;;18.00;99.90;;;;;;5017052;28;20501;-75
2023/05/23 10:02:11;;;;;;;10.68;4.22;;;18.10;99.90;;;;;;5021602;28;20047;-76
2023/05/23 10:04:41;;;;;;;9.93;3.13;;;18.00;99.90;;;;;;5014151;28;20417;-75
2023/05/23 10:07:16;;;;;;;11.85;3.83;;;17.70;99.90;;;;;;4994281;28;20113;-75
2023/05/23 10:09:46;;;;;;;14.20;3.85;;;17.50;99.90;;;;;;5016305;28;20057;-76
2023/05/23 10:12:32;;;;;;;18.67;3.90;;;17.80;99.90;;;;;;5006813;28;20029;-75
2023/05/23 10:15:06;;;;;;;15.60;3.03;;;17.90;99.90;;;;;;5011831;28;20030;-76
2023/05/23 10:17:49;;;;;;;11.30;3.45;;;18.30;99.90;;;;;;5012331;28;20512;-75
2023/05/23 10:20:16;;;;;;;14.18;3.33;;;19.10;99.90;;;;;;5016033;28;20030;-76
2023/05/23 10:22:42;;;;;;;9.93;2.83;;;19.20;99.90;;;;;;5001666;28;20493;-77
2023/05/23 10:25:09;;;;;;;15.05;3.45;;;19.30;99.90;;;;;;5016717;28;20434;-75
2023/05/23 10:27:40;;;;;;;22.00;3.40;;;19.10;99.90;;;;;;5019686;28;20029;-76
2023/05/23 10:30:07;;;;;;;15.05;3.75;;;18.80;99.90;;;;;;5014270;28;20014;-76
2023/05/23 10:32:34;;;;;;;10.32;3.33;;;18.50;99.90;;;;;;5018939;28;20433;-76
2023/05/23 10:35:24;;;;;;;9.73;2.90;;;18.40;99.90;;;;;;5016620;28;20057;-77
2023/05/23 10:38:27;;;;;;;14.95;3.63;;;18.70;99.90;;;;;;5015161;28;20381;-75
2023/05/23 10:40:57;;;;;;;19.47;3.40;;;18.60;99.90;;;;;;5004656;28;20018;-76
2023/05/23 10:43:35;;;;;;;13.20;3.40;;;18.70;99.90;;;;;;5015499;28;20113;-77
2023/05/23 10:46:01;;;;;;;12.60;3.30;;;18.70;99.90;;;;;;5014427;28;20025;-77
2023/05/23 10:48:43;;;;;;;15.02;3.33;;;18.60;99.90;;;;;;5017427;28;20030;-76
2023/05/23 10:51:38;;;;;;;14.85;2.50;;;18.30;99.90;;;;;;4998325;28;20029;-76
2023/05/23 10:54:10;;;;;;;13.70;2.92;;;18.70;99.90;;;;;;5013957;28;20030;-78
2023/05/23 10:56:36;;;;;;;8.50;2.60;;;19.20;99.90;;;;;;4998622;28;20745;-75
2023/05/23 10:59:09;;;;;;;14.80;2.85;;;20.00;99.90;;;;;;5001220;28;20331;-75
2023/05/23 11:01:39;;;;;;;16.58;3.30;;;21.20;99.90;;;;;;5014582;28;20110;-75
2023/05/23 11:04:06;;;;;;;11.68;3.30;;;21.60;99.90;;;;;;5015304;28;20022;-76
2023/05/23 11:06:42;;;;;;;13.65;2.95;;;21.40;99.30;;;;;;5014553;28;20422;-76
2023/05/23 11:09:13;;;;;;;18.35;3.35;;;20.90;98.90;;;;;;5015948;28;20116;-75
2023/05/23 11:11:53;;;;;;;19.77;3.75;;;20.90;99.90;;;;;;4997121;28;20039;-75
2023/05/23 11:14:22;;;;;;;17.25;3.20;;;20.90;99.90;;;;;;5013836;28;20176;-75
2023/05/23 11:16:48;;;;;;;10.98;3.40;;;21.20;99.50;;;;;;4998848;28;20093;-74
2023/05/23 11:19:24;;;;;;;13.98;3.35;;;21.20;97.00;;;;;;5014050;28;20034;-75
2023/05/23 11:22:04;;;;;;;12.98;3.15;;;21.30;95.20;;;;;;5002349;28;20502;-76
2023/05/23 11:24:51;;;;;;;14.63;3.92;;;21.40;96.70;;;;;;5006391;28;20111;-75
2023/05/23 11:27:39;;;;;;;15.00;3.42;;;21.60;94.80;;;;;;5001748;28;20615;-75
2023/05/23 11:30:08;;;;;;;10.23;3.20;;;21.80;95.40;;;;;;5013741;28;20489;-76
2023/05/23 11:32:35;;;;;;;18.40;3.28;;;22.00;95.70;;;;;;5015977;28;20025;-75
2023/05/23 11:35:03;;;;;;;12.18;3.80;;;22.40;92.80;;;;;;5015354;28;20018;-76
2023/05/23 11:37:30;;;;;;;14.57;3.05;;;22.50;92.90;;;;;;5015956;28;20021;-75
2023/05/23 11:39:56;;;;;;;13.13;4.10;;;22.80;92.40;;;;;;5013730;28;20022;-75
2023/05/23 11:42:22;;;;;;;9.00;3.22;;;23.00;93.10;;;;;;5002330;28;20037;-75
2023/05/23 11:44:50;;;;;;;16.15;4.05;;;22.90;91.80;;;;;;4995945;28;20160;-75
2023/05/23 11:47:16;;;;;;;11.73;3.10;;;22.50;91.00;;;;;;5000315;28;20473;-75
2023/05/23 11:49:45;;;;;;;19.05;3.65;;;21.90;92.80;;;;;;5013256;28;20026;-75
2023/05/23 11:52:14;;;;;;;18.00;4.00;;;21.70;92.90;;;;;;5014753;28;20017;-76
2023/05/23 11:54:43;;;;;;;15.07;3.50;;;21.90;93.30;;;;;;5015197;28;20392;-74
2023/05/23 11:57:13;;;;;;;13.68;3.35;;;21.70;94.40;;;;;;5011217;28;20030;-74
2023/05/23 11:59:39;;;;;;;15.15;3.10;;;22.00;93.20;;;;;;4998307;28;20137;-75
2023/05/23 12:02:06;;;;;;;41.63;17.23;;;22.00;92.90;;;;;;5015296;28;20219;-75
2023/05/23 12:04:35;;;;;;;6.20;3.42;;;22.10;90.50;;;;;;5013857;28;20133;-77
2023/05/23 12:07:06;;;;;;;14.18;3.55;;;22.30;91.00;;;;;;5001092;28;20068;-75
2023/05/23 12:09:39;;;;;;;14.57;3.15;;;22.90;90.50;;;;;;5015192;28;20083;-75
2023/05/23 12:12:05;;;;;;;11.05;3.15;;;22.90;86.30;;;;;;5015212;28;20068;-76
2023/05/23 12:14:34;;;;;;;13.50;3.50;;;23.10;90.00;;;;;;5014388;28;20061;-77
2023/05/23 12:17:01;;;;;;;11.05;3.67;;;22.90;88.80;;;;;;5002165;28;20032;-76
2023/05/23 12:19:27;;;;;;;11.40;4.35;;;22.70;88.90;;;;;;5010029;28;20028;-78
2023/05/23 12:21:53;;;;;;;18.33;5.40;;;22.90;91.10;;;;;;5012905;28;20533;-76
2023/05/23 12:24:21;;;;;;;9.35;3.30;;;23.20;84.80;;;;;;5008742;28;20558;-76
2023/05/23 12:26:52;;;;;;;8.13;3.65;;;23.40;85.60;;;;;;5015938;28;20028;-75
2023/05/23 12:29:28;;;;;;;8.48;3.00;;;23.80;82.70;;;;;;4996336;28;20040;-75
2023/05/23 12:31:53;;;;;;;9.52;3.20;;;23.60;79.50;;;;;;5011760;28;20084;-75
2023/05/23 12:34:20;;;;;;;14.75;3.17;;;23.50;78.90;;;;;;5013736;28;20127;-76
2023/05/23 12:36:48;;;;;;;11.60;3.08;;;23.20;80.80;;;;;;5015408;28;20433;-76
2023/05/23 12:39:14;;;;;;;15.23;3.58;;;22.90;79.80;;;;;;5011738;28;20025;-76
2023/05/23 12:41:46;;;;;;;11.45;2.97;;;23.00;86.90;;;;;;5012693;28;20120;-75